Airway Heights, Washington
Current Conditions -  °F | °C
As of 7:53 AM on Monday 24 Nov 2014 (Local Time) from KGEG Reporting Station
Broken Clouds Broken Clouds  
Wind Chill: 18°   Ceiling: 21000
Heat Index: 28°   Visibility: 10mi
Dew Point: 27°   Wind: 12mph
Humidity: 96%   Direction: 150°SSE
Pressure: 30.31"   Gusts: NA
Location:  47.64°N, 117.59°W
Report Text: KGEG 241553Z 15010KT 10SM FEW180 BKN210 M02/M03 A3031 RMK AO2 SLP287 T10221028
Loading
Personal Weather Stations






























Interactive Weather Map New forecast layout! Learn more

10-Day Weather Forecast

Advertisements
Track Severe Weather on mobile